Time;durP1;ratioP1;P1;durP2;ratioP2;P2;SDS_P1;SDS_P2;PMS_P1;PMS_P2;Temp;Humidity;BMP_temperature;BMP_pressure;BME280_temperature;BME280_humidity;BME280_pressure;Samples;Min_cycle;Max_cycle;Signal;HPM_P1;HPM_P2
2021/12/02 00:01:01;;;;;;;3.30;1.10;;;;;;;-0.85;65.29;98475.95;1729501;81;21066;-57
2021/12/02 00:03:28;;;;;;;3.23;1.10;;;;;;;-0.83;65.26;98471.52;1727805;81;21041;-57
2021/12/02 00:05:54;;;;;;;3.00;1.00;;;;;;;-0.80;65.26;98467.49;1728293;81;21136;-57
2021/12/02 00:08:21;;;;;;;2.40;1.13;;;;;;;-0.79;65.23;98467.91;1735498;81;21037;-57
2021/12/02 00:10:47;;;;;;;2.37;1.00;;;;;;;-0.76;65.17;98463.86;1723223;81;21156;-58
2021/12/02 00:13:20;;;;;;;2.77;0.90;;;;;;;-0.75;65.09;98458.12;1729538;81;21014;-57
2021/12/02 00:15:56;;;;;;;2.33;0.80;;;;;;;-0.74;65.00;98458.55;1724091;81;21490;-57
2021/12/02 00:23:42;;;;;;;2.17;0.80;;;;;;;-0.70;64.84;98460.22;1726987;81;21122;-57
2021/12/02 00:26:13;;;;;;;1.13;0.70;;;;;;;-0.70;64.84;98454.06;1727285;81;20956;-57
2021/12/02 00:28:40;;;;;;;0.93;0.57;;;;;;;-0.70;64.85;98449.66;1699093;81;20946;-58
2021/12/02 00:31:16;;;;;;;1.23;0.70;;;;;;;-0.68;64.86;98441.70;1728669;81;20965;-57
2021/12/02 00:33:49;;;;;;;1.53;0.70;;;;;;;-0.67;64.88;98444.27;1728648;81;21359;-57
2021/12/02 00:36:16;;;;;;;1.10;0.60;;;;;;;-0.67;64.95;98439.44;1730350;81;21721;-57
2021/12/02 00:38:43;;;;;;;1.63;0.80;;;;;;;-0.67;65.03;98443.41;1728300;81;21442;-57
2021/12/02 00:41:11;;;;;;;2.93;1.00;;;;;;;-0.66;65.11;98447.78;1732035;81;20947;-57
2021/12/02 00:43:39;;;;;;;1.83;0.97;;;;;;;-0.65;65.18;98447.76;1727443;81;21524;-57
2021/12/02 00:46:08;;;;;;;1.60;0.80;;;;;;;-0.62;65.29;98441.53;1724331;81;21002;-57
2021/12/02 00:48:36;;;;;;;2.60;0.90;;;;;;;-0.60;65.38;98436.64;1702298;82;21114;-57
2021/12/02 00:51:02;;;;;;;1.23;0.80;;;;;;;-0.58;65.54;98424.23;1727322;81;21521;-57
2021/12/02 00:53:29;;;;;;;1.77;0.80;;;;;;;-0.56;65.64;98413.63;1728977;81;21441;-57
2021/12/02 00:55:55;;;;;;;2.27;0.90;;;;;;;-0.55;65.72;98412.72;1736072;81;20896;-58
2021/12/02 00:58:23;;;;;;;1.87;0.90;;;;;;;-0.53;65.88;98413.56;1729561;81;20979;-57
2021/12/02 01:00:52;;;;;;;1.80;1.00;;;;;;;-0.54;66.00;98398.16;1726153;81;21103;-57
2021/12/02 01:03:19;;;;;;;1.60;0.90;;;;;;;-0.53;66.15;98396.38;1728404;81;20899;-57
2021/12/02 01:05:45;;;;;;;3.07;1.30;;;;;;;-0.51;66.26;98393.25;1714826;82;20930;-57
2021/12/02 01:08:13;;;;;;;4.07;1.23;;;;;;;-0.51;66.44;98391.45;1706481;82;21410;-57
2021/12/02 01:10:40;;;;;;;1.87;1.10;;;;;;;-0.51;66.52;98384.84;1712566;82;21401;-57
2021/12/02 01:13:06;;;;;;;1.73;1.00;;;;;;;-0.49;66.66;98384.80;1713162;82;21896;-57
2021/12/02 01:15:33;;;;;;;2.57;1.00;;;;;;;-0.47;66.75;98381.67;1715030;82;21405;-57
2021/12/02 01:17:59;;;;;;;1.83;1.10;;;;;;;-0.47;66.86;98375.06;1715136;82;21600;-57
2021/12/02 01:20:26;;;;;;;2.20;0.93;;;;;;;-0.46;66.98;98370.20;1712747;82;21082;-57
2021/12/02 01:22:52;;;;;;;1.60;1.00;;;;;;;-0.44;67.00;98371.03;1722368;82;21078;-57
2021/12/02 01:25:19;;;;;;;1.97;1.37;;;;;;;-0.42;67.08;98367.88;1709928;82;21122;-58
2021/12/02 01:27:48;;;;;;;1.87;1.20;;;;;;;-0.42;67.22;98359.94;1709051;82;21121;-57
2021/12/02 01:30:15;;;;;;;2.57;1.00;;;;;;;-0.42;67.31;98358.17;1714302;82;20900;-57
2021/12/02 01:32:41;;;;;;;2.23;1.00;;;;;;;-0.40;67.41;98362.09;1705850;82;20995;-57
2021/12/02 01:35:08;;;;;;;4.20;1.67;;;;;;;-0.40;67.50;98354.17;1709789;82;21924;-57
2021/12/02 01:37:35;;;;;;;2.67;1.13;;;;;;;-0.38;67.65;98351.03;1711833;82;21733;-57
2021/12/02 01:40:01;;;;;;;1.47;1.07;;;;;;;-0.35;67.70;98356.25;1716135;82;20971;-57
2021/12/02 01:42:28;;;;;;;4.53;1.10;;;;;;;-0.34;67.74;98359.77;1714598;82;20876;-58
2021/12/02 01:44:58;;;;;;;2.47;1.40;;;;;;;-0.32;67.82;98353.95;1712496;82;21082;-56
2021/12/02 01:47:28;;;;;;;2.67;1.20;;;;;;;-0.29;67.89;98345.95;1709153;82;21038;-58
2021/12/02 01:50:01;;;;;;;3.27;1.67;;;;;;;-0.28;67.97;98336.67;1710007;82;21633;-57
2021/12/02 01:52:31;;;;;;;2.57;1.30;;;;;;;-0.27;68.03;98338.41;1709506;82;21089;-57
2021/12/02 01:55:09;;;;;;;2.53;1.60;;;;;;;-0.26;68.13;98332.21;1707158;82;22196;-57
2021/12/02 01:57:42;;;;;;;2.03;1.23;;;;;;;-0.25;68.25;98329.95;1712276;82;21433;-57
2021/12/02 02:00:19;;;;;;;2.10;1.23;;;;;;;-0.22;68.29;98319.30;1685609;82;21428;-57
2021/12/02 02:02:47;;;;;;;1.90;1.60;;;;;;;-0.21;68.30;98312.23;1713188;80;21583;-57
2021/12/02 02:05:16;;;;;;;2.37;1.83;;;;;;;-0.20;68.40;98309.55;1744737;80;21298;-57
2021/12/02 02:08:05;;;;;;;3.13;1.73;;;;;;;-0.17;68.42;98314.73;1752429;80;20987;-57
2021/12/02 02:10:35;;;;;;;3.30;1.60;;;;;;;-0.14;68.46;98309.83;1754645;80;21045;-57
2021/12/02 02:13:06;;;;;;;2.63;1.50;;;;;;;-0.12;68.56;98318.14;1743315;80;21649;-57
2021/12/02 02:15:31;;;;;;;2.40;1.77;;;;;;;-0.13;68.58;98313.75;1747620;80;21137;-57
2021/12/02 02:18:12;;;;;;;3.10;1.90;;;;;;;-0.12;68.65;98309.33;1747908;80;21369;-57
2021/12/02 02:20:48;;;;;;;3.67;2.37;;;;;;;-0.11;68.69;98321.20;1729656;81;20888;-57
2021/12/02 02:23:12;;;;;;;3.03;2.47;;;;;;;-0.10;68.72;98326.91;1730557;81;20995;-57
2021/12/02 02:25:39;;;;;;;2.37;1.97;;;;;;;-0.07;68.80;98321.50;1682124;81;20986;-57
2021/12/02 02:28:06;;;;;;;2.77;2.23;;;;;;;-0.05;68.90;98317.05;1723676;81;21153;-57
2021/12/02 02:30:32;;;;;;;3.43;2.53;;;;;;;-0.01;68.95;98309.45;1692027;83;21097;-57
2021/12/02 02:32:59;;;;;;;3.77;2.97;;;;;;;0.01;69.01;98309.37;1686686;83;21468;-57
2021/12/02 02:35:25;;;;;;;5.60;3.60;;;;;;;0.04;69.04;98315.05;1684143;83;21493;-57
2021/12/02 02:37:51;;;;;;;6.67;2.83;;;;;;;0.06;69.07;98304.84;1724799;81;21513;-59
2021/12/02 02:40:18;;;;;;;4.97;3.43;;;;;;;0.09;69.18;98299.89;1723579;81;21682;-59
2021/12/02 02:42:55;;;;;;;4.80;3.27;;;;;;;0.12;69.20;98302.45;1723539;81;21062;-59
2021/12/02 02:45:17;;;;;;;5.77;3.30;;;;;;;0.15;69.27;98299.73;1720955;81;21078;-59
2021/12/02 02:47:44;;;;;;;4.30;2.60;;;;;;;0.16;69.32;98301.02;1722928;81;21094;-59
2021/12/02 02:50:12;;;;;;;5.57;3.67;;;;;;;0.18;69.35;98312.39;1724303;81;21046;-57
2021/12/02 02:52:40;;;;;;;6.60;3.27;;;;;;;0.19;69.38;98306.66;1731220;81;21696;-57
2021/12/02 02:55:07;;;;;;;4.33;3.37;;;;;;;0.21;69.45;98306.16;1690963;83;20942;-57
2021/12/02 02:57:43;;;;;;;4.10;2.93;;;;;;;0.23;69.46;98305.66;1692911;83;21085;-57
2021/12/02 03:00:09;;;;;;;5.43;3.23;;;;;;;0.25;69.46;98291.94;1690629;83;21108;-57
2021/12/02 03:07:45;;;;;;;5.47;3.43;;;;;;;0.28;69.55;98280.78;1725697;81;21325;-57
2021/12/02 03:12:42;;;;;;;6.00;3.20;;;;;;;0.33;69.61;98272.72;1678218;84;21090;-57
2021/12/02 03:18:26;;;;;;;4.80;4.00;;;;;;;0.42;69.67;98287.45;1865135;75;27128;-57
2021/12/02 03:20:53;;;;;;;3.13;2.83;;;;;;;0.39;69.67;98269.88;1844039;77;21101;-57
2021/12/02 03:23:19;;;;;;;4.77;3.60;;;;;;;0.40;69.62;98268.97;1843371;77;21911;-57
2021/12/02 03:25:46;;;;;;;4.87;3.43;;;;;;;0.43;69.56;98256.94;1847201;77;20925;-57
2021/12/02 03:28:13;;;;;;;6.33;4.00;;;;;;;0.45;69.56;98255.56;1805610;78;21729;-57
2021/12/02 03:30:39;;;;;;;3.57;2.57;;;;;;;0.46;69.54;98252.02;1802822;78;21672;-57
2021/12/02 03:33:05;;;;;;;5.13;3.83;;;;;;;0.49;69.59;98243.98;1807957;78;20993;-57
2021/12/02 03:35:32;;;;;;;5.40;3.73;;;;;;;0.50;69.59;98241.30;1781181;78;21097;-57
2021/12/02 03:37:58;;;;;;;3.53;3.10;;;;;;;0.52;69.56;98239.44;1795635;79;21054;-57
2021/12/02 03:40:24;;;;;;;3.97;3.60;;;;;;;0.55;69.52;98236.70;1792540;79;21079;-57
2021/12/02 03:42:52;;;;;;;5.13;3.80;;;;;;;0.56;69.53;98233.14;1793487;79;21044;-57
2021/12/02 03:45:19;;;;;;;4.33;3.70;;;;;;;0.57;69.53;98225.61;1794267;78;20942;-57
2021/12/02 03:47:45;;;;;;;3.63;3.03;;;;;;;0.59;69.52;98222.92;1765658;79;21108;-56
2021/12/02 03:50:12;;;;;;;4.53;4.13;;;;;;;0.59;69.57;98222.47;1790891;79;21467;-57
2021/12/02 03:52:38;;;;;;;5.30;3.80;;;;;;;0.61;69.59;98219.28;1795235;79;20893;-57
2021/12/02 03:55:05;;;;;;;4.40;3.63;;;;;;;0.63;69.58;98206.87;1790404;78;20973;-57
2021/12/02 03:57:32;;;;;;;5.90;4.03;;;;;;;0.63;69.61;98198.92;1790413;79;20874;-57
2021/12/02 04:00:00;;;;;;;5.27;3.83;;;;;;;0.63;69.62;98202.89;1794035;79;21100;-57
2021/12/02 04:02:27;;;;;;;4.17;3.47;;;;;;;0.64;69.59;98205.09;1795187;79;21432;-57
2021/12/02 04:04:53;;;;;;;6.93;3.47;;;;;;;0.64;69.61;98201.98;1791124;78;21851;-57
2021/12/02 04:07:23;;;;;;;3.47;3.17;;;;;;;0.66;69.60;98203.27;1788702;79;21689;-57
2021/12/02 04:09:49;;;;;;;4.23;3.17;;;;;;;0.66;69.64;98196.19;1791991;79;21109;-57
2021/12/02 04:14:59;;;;;;;14.53;7.60;;;;;;;0.68;69.64;98196.14;1696289;82;21426;-57
2021/12/02 04:17:29;;;;;;;21.23;13.07;;;;;;;0.67;69.72;98191.76;1780977;79;21221;-57
2021/12/02 04:19:48;;;;;;;19.13;13.17;;;;;;;0.65;69.76;98182.53;1763058;79;20918;-57
2021/12/02 04:22:15;;;;;;;13.77;9.47;;;;;;;0.66;69.84;98178.97;1766233;79;21546;-57
2021/12/02 04:24:41;;;;;;;7.97;6.13;;;;;;;0.67;69.89;98186.00;1767821;79;21114;-57
2021/12/02 04:27:07;;;;;;;8.37;6.00;;;;;;;0.69;69.90;98185.47;1764957;79;21116;-57
2021/12/02 04:29:34;;;;;;;5.37;4.00;;;;;;;0.70;69.95;98178.39;1783495;78;21029;-57
2021/12/02 04:32:00;;;;;;;5.87;4.90;;;;;;;0.71;69.95;98165.11;1754200;79;21078;-56
2021/12/02 04:34:26;;;;;;;6.93;4.93;;;;;;;0.70;70.00;98173.96;1747335;80;21714;-57
2021/12/02 04:36:52;;;;;;;5.07;3.63;;;;;;;0.71;70.02;98171.73;1781742;78;21527;-57
2021/12/02 04:39:19;;;;;;;5.40;4.63;;;;;;;0.72;70.06;98158.89;1782596;78;21495;-57
2021/12/02 04:41:46;;;;;;;5.40;3.47;;;;;;;0.74;70.04;98169.44;1763996;79;21078;-57
2021/12/02 04:44:18;;;;;;;5.33;4.43;;;;;;;0.74;70.12;98173.41;1763549;79;21073;-56
2021/12/02 04:46:42;;;;;;;5.10;4.33;;;;;;;0.77;70.07;98168.48;1761221;79;21065;-56
2021/12/02 04:49:08;;;;;;;5.87;4.10;;;;;;;0.79;70.10;98176.76;1763556;79;21115;-56
2021/12/02 04:51:35;;;;;;;3.73;3.43;;;;;;;0.81;70.10;98178.03;1781185;78;21080;-56
2021/12/02 04:54:01;;;;;;;4.17;3.77;;;;;;;0.82;70.06;98183.29;1754633;80;21671;-56
2021/12/02 04:56:28;;;;;;;5.90;3.63;;;;;;;0.86;70.06;98166.81;1778216;78;21628;-57
2021/12/02 04:58:54;;;;;;;4.70;3.90;;;;;;;0.88;69.98;98158.36;1751596;80;21656;-57
2021/12/02 05:01:20;;;;;;;5.37;4.30;;;;;;;0.90;69.98;98153.88;1779328;78;21443;-56
2021/12/02 05:03:49;;;;;;;6.67;4.27;;;;;;;0.91;69.97;98173.70;1755230;80;21723;-57
2021/12/02 05:06:15;;;;;;;3.83;3.43;;;;;;;0.92;69.97;98155.56;1781458;78;21586;-56
2021/12/02 05:08:42;;;;;;;6.83;4.67;;;;;;;0.94;69.93;98147.54;1779631;78;21510;-56
2021/12/02 05:11:09;;;;;;;5.23;4.50;;;;;;;0.96;69.91;98145.25;1753081;80;21802;-56
2021/12/02 05:13:35;;;;;;;3.87;3.37;;;;;;;0.97;69.93;98141.69;1745515;80;22227;-56
2021/12/02 05:16:01;;;;;;;4.97;4.33;;;;;;;1.00;69.92;98137.62;1749816;80;21399;-56
2021/12/02 05:18:28;;;;;;;4.67;4.27;;;;;;;1.01;69.95;98127.42;1755907;80;21055;-56
2021/12/02 05:20:54;;;;;;;6.03;4.23;;;;;;;1.04;69.89;98137.89;1781720;78;21030;-56
2021/12/02 05:23:21;;;;;;;5.63;4.60;;;;;;;1.05;69.91;98146.25;1790576;78;21500;-56
2021/12/02 05:25:47;;;;;;;4.90;3.93;;;;;;;1.07;69.88;98135.14;1783664;78;21054;-56
2021/12/02 05:28:15;;;;;;;4.77;3.53;;;;;;;1.08;69.90;98140.86;1785131;78;21352;-56
2021/12/02 05:30:42;;;;;;;11.27;8.93;;;;;;;1.10;69.90;98136.83;1784032;78;20962;-56
2021/12/02 05:33:10;;;;;;;7.73;5.13;;;;;;;1.10;69.88;98141.67;1791695;78;20942;-56
2021/12/02 05:35:37;;;;;;;5.27;4.27;;;;;;;1.13;69.90;98146.84;1785100;78;21064;-57
2021/12/02 05:38:03;;;;;;;5.97;3.83;;;;;;;1.14;69.89;98145.06;1786284;78;21138;-57
2021/12/02 05:40:31;;;;;;;4.07;3.57;;;;;;;1.17;69.91;98146.28;1782092;78;21062;-56
2021/12/02 05:42:58;;;;;;;4.53;3.77;;;;;;;1.19;69.91;98160.36;1779773;78;21080;-56
2021/12/02 05:45:24;;;;;;;4.57;3.43;;;;;;;1.19;69.90;98147.56;1779135;78;21047;-56
2021/12/02 05:47:51;;;;;;;4.00;3.60;;;;;;;1.19;69.93;98154.19;1780342;78;21017;-56
2021/12/02 05:50:17;;;;;;;4.60;3.90;;;;;;;1.20;69.94;98151.91;1785001;78;21094;-56
2021/12/02 05:52:43;;;;;;;4.50;3.30;;;;;;;1.20;69.95;98159.41;1779938;78;21053;-57
2021/12/02 05:55:10;;;;;;;5.03;3.57;;;;;;;1.21;69.99;98149.21;1783058;78;21431;-56
2021/12/02 05:57:36;;;;;;;5.50;4.53;;;;;;;1.23;70.01;98154.46;1778393;78;21480;-56
2021/12/02 06:00:07;;;;;;;4.27;3.60;;;;;;;1.24;70.04;98155.73;1784507;78;21543;-55
2021/12/02 06:02:36;;;;;;;6.20;5.23;;;;;;;1.26;70.12;98156.56;1757173;80;21237;-56
2021/12/02 06:05:04;;;;;;;5.70;4.33;;;;;;;1.27;70.12;98151.66;1758115;80;21351;-56
2021/12/02 06:07:31;;;;;;;7.60;5.17;;;;;;;1.28;70.13;98162.64;1758668;80;20974;-55
2021/12/02 06:09:58;;;;;;;10.97;7.17;;;;;;;1.30;70.19;98166.11;1783563;78;20901;-55
2021/12/02 06:12:24;;;;;;;8.13;5.60;;;;;;;1.31;70.20;98155.91;1784571;78;20992;-55
2021/12/02 06:14:50;;;;;;;10.73;6.27;;;;;;;1.33;70.25;98150.56;1785410;78;21382;-55
2021/12/02 06:17:17;;;;;;;5.43;3.73;;;;;;;1.36;70.22;98157.09;1787008;78;20908;-55
2021/12/02 06:19:43;;;;;;;10.10;6.40;;;;;;;1.37;70.21;98157.00;1773573;79;20917;-55
2021/12/02 06:22:10;;;;;;;6.83;4.00;;;;;;;1.38;70.23;98155.22;1794366;79;20896;-56
2021/12/02 06:25:04;;;;;;;7.03;4.53;;;;;;;1.38;70.27;98156.55;1794124;79;20975;-56
2021/12/02 06:27:16;;;;;;;10.97;6.90;;;;;;;1.39;70.29;98155.17;1789171;78;21408;-55
2021/12/02 06:29:43;;;;;;;16.77;8.90;;;;;;;1.42;70.30;98154.20;1795626;78;21573;-56
2021/12/02 06:32:10;;;;;;;6.60;4.43;;;;;;;1.44;70.33;98154.56;1795932;79;20945;-56
2021/12/02 06:34:36;;;;;;;4.57;3.50;;;;;;;1.46;70.29;98150.50;1793013;79;21327;-55
2021/12/02 06:37:03;;;;;;;6.97;3.93;;;;;;;1.48;70.29;98163.25;1794659;79;20945;-55
2021/12/02 06:39:29;;;;;;;25.20;14.33;;;;;;;1.49;70.33;98159.68;1794830;78;21042;-54
2021/12/02 06:41:56;;;;;;;6.97;5.30;;;;;;;1.49;70.32;98160.55;1792174;79;20894;-55
2021/12/02 06:44:22;;;;;;;7.53;5.40;;;;;;;1.51;70.35;98164.02;1791603;79;20917;-55
2021/12/02 06:46:48;;;;;;;10.67;6.47;;;;;;;1.53;70.35;98157.33;1792660;79;21014;-55
2021/12/02 06:49:14;;;;;;;5.90;3.77;;;;;;;1.57;70.38;98160.72;1789434;78;21439;-54
2021/12/02 06:51:41;;;;;;;7.60;5.67;;;;;;;1.59;70.36;98155.77;1790159;79;21644;-55
2021/12/02 06:54:07;;;;;;;7.37;5.47;;;;;;;1.60;70.37;98149.55;1812739;78;21697;-55
2021/12/02 06:56:33;;;;;;;4.63;3.70;;;;;;;1.62;70.36;98152.98;1784281;78;21101;-55
2021/12/02 06:59:00;;;;;;;3.33;2.40;;;;;;;1.63;70.39;98152.52;1786843;78;21104;-55
2021/12/02 07:01:26;;;;;;;3.77;3.23;;;;;;;1.66;70.37;98144.46;1775935;80;20875;-54
2021/12/02 07:03:52;;;;;;;4.10;2.97;;;;;;;1.67;70.41;98159.45;1795945;79;21102;-54
2021/12/02 07:06:20;;;;;;;5.50;3.87;;;;;;;1.70;70.40;98154.05;1792902;78;20976;-54
2021/12/02 07:08:48;;;;;;;3.13;2.83;;;;;;;1.73;70.42;98151.25;1792797;79;21025;-55
2021/12/02 07:11:14;;;;;;;4.50;3.77;;;;;;;1.75;70.47;98139.67;1792920;79;21115;-53
2021/12/02 07:13:40;;;;;;;4.00;3.17;;;;;;;1.78;70.43;98130.73;1789823;79;21060;-54
2021/12/02 07:16:07;;;;;;;4.83;2.90;;;;;;;1.81;70.45;98134.12;1790147;78;21133;-54
2021/12/02 07:18:38;;;;;;;4.67;3.47;;;;;;;1.84;70.45;98138.45;1778268;79;21387;-54
2021/12/02 07:21:01;;;;;;;6.53;3.97;;;;;;;1.87;70.45;98141.83;1782229;79;21415;-54
2021/12/02 07:23:28;;;;;;;6.20;4.53;;;;;;;1.91;70.49;98143.91;1755995;79;22509;-53
2021/12/02 07:25:54;;;;;;;4.03;3.20;;;;;;;1.95;70.48;98138.04;1756756;80;21466;-54
2021/12/02 07:28:21;;;;;;;3.93;3.13;;;;;;;1.99;70.50;98138.30;1726414;80;21058;-54
2021/12/02 07:30:52;;;;;;;5.53;3.57;;;;;;;2.03;70.44;98135.48;1779564;78;21392;-55
2021/12/02 07:33:18;;;;;;;4.93;3.07;;;;;;;2.07;70.41;98142.38;1782032;78;21614;-53
2021/12/02 07:35:44;;;;;;;4.53;3.10;;;;;;;2.11;70.39;98134.72;1745572;79;21108;-53
2021/12/02 07:38:11;;;;;;;7.27;3.73;;;;;;;2.15;70.34;98133.66;1762697;79;21636;-55
2021/12/02 07:40:41;;;;;;;4.70;3.30;;;;;;;2.18;70.31;98125.58;1762452;79;21610;-55
2021/12/02 07:43:06;;;;;;;4.83;3.93;;;;;;;2.18;70.32;98141.50;1781019;78;21373;-55
2021/12/02 07:45:36;;;;;;;3.50;2.97;;;;;;;2.19;70.34;98139.72;1754145;80;20905;-55
2021/12/02 07:48:04;;;;;;;7.60;3.77;;;;;;;2.20;70.34;98147.63;1757826;79;21053;-54
2021/12/02 07:50:31;;;;;;;5.97;2.63;;;;;;;2.24;70.34;98141.70;1780911;79;21882;-55
2021/12/02 07:53:02;;;;;;;7.10;3.97;;;;;;;2.25;70.36;98150.94;1757255;80;21744;-55
2021/12/02 07:55:29;;;;;;;4.87;2.80;;;;;;;2.30;70.35;98153.89;1756170;79;21055;-55
2021/12/02 07:57:55;;;;;;;5.10;3.03;;;;;;;2.32;70.37;98150.22;1753150;79;21064;-54
2021/12/02 08:00:24;;;;;;;7.10;4.40;;;;;;;2.34;70.41;98155.02;1752157;79;22221;-55
2021/12/02 08:02:53;;;;;;;6.50;4.37;;;;;;;2.36;70.38;98148.33;1778869;78;21124;-55
2021/12/02 08:05:21;;;;;;;6.17;4.00;;;;;;;2.38;70.39;98139.84;1753810;79;21119;-54
2021/12/02 08:07:47;;;;;;;5.37;3.40;;;;;;;2.39;70.41;98140.21;1781999;79;21511;-55
2021/12/02 08:10:15;;;;;;;6.47;3.47;;;;;;;2.41;70.44;98148.98;1780816;78;21475;-54
2021/12/02 08:12:48;;;;;;;5.50;3.83;;;;;;;2.43;70.46;98149.80;1782641;78;21092;-55
2021/12/02 08:15:19;;;;;;;4.87;3.47;;;;;;;2.45;70.50;98145.30;1756545;79;21080;-54
2021/12/02 08:17:46;;;;;;;5.47;4.23;;;;;;;2.45;70.52;98151.47;1781986;78;20969;-55
2021/12/02 08:20:13;;;;;;;5.30;3.50;;;;;;;2.49;70.57;98161.48;1781222;78;21659;-54
2021/12/02 08:22:40;;;;;;;4.07;3.03;;;;;;;2.50;70.60;98156.58;1782484;78;22296;-54
2021/12/02 08:25:07;;;;;;;6.03;3.63;;;;;;;2.52;70.63;98148.95;1765486;79;21545;-55
2021/12/02 08:27:33;;;;;;;6.33;4.27;;;;;;;2.56;70.65;98157.64;1764952;79;21118;-54
2021/12/02 08:30:02;;;;;;;6.03;4.57;;;;;;;2.58;70.69;98157.13;1781804;79;21080;-54
2021/12/02 08:32:28;;;;;;;5.60;4.17;;;;;;;2.61;70.73;98159.67;1780956;79;21061;-53
2021/12/02 08:34:58;;;;;;;5.43;4.20;;;;;;;2.63;70.77;98155.16;1781407;78;21028;-54
2021/12/02 08:37:26;;;;;;;5.97;3.93;;;;;;;2.66;70.82;98156.34;1779644;78;21080;-54
2021/12/02 08:39:54;;;;;;;6.10;3.70;;;;;;;2.71;70.84;98154.84;1755850;79;21065;-53
2021/12/02 08:42:24;;;;;;;6.67;4.20;;;;;;;2.76;70.88;98163.00;1752126;80;20898;-54
2021/12/02 08:44:50;;;;;;;7.70;4.73;;;;;;;2.79;70.93;98157.57;1751530;80;20914;-54
2021/12/02 08:47:21;;;;;;;7.30;4.10;;;;;;;2.83;70.97;98152.52;1757866;79;21443;-53
2021/12/02 08:49:46;;;;;;;4.87;3.07;;;;;;;2.87;71.06;98147.94;1766093;79;20953;-54
2021/12/02 08:52:13;;;;;;;7.87;5.47;;;;;;;2.90;71.04;98141.14;1766946;79;20965;-52
2021/12/02 08:54:39;;;;;;;4.93;4.00;;;;;;;2.92;71.06;98153.91;1767105;79;22114;-53
2021/12/02 08:57:06;;;;;;;6.27;3.43;;;;;;;2.95;71.15;98158.64;1767791;80;20925;-53
2021/12/02 08:59:32;;;;;;;6.67;3.07;;;;;;;2.98;71.14;98145.20;1765851;79;20886;-54
2021/12/02 09:01:58;;;;;;;9.10;5.23;;;;;;;3.01;71.18;98137.57;1764550;79;20986;-52
2021/12/02 09:04:24;;;;;;;8.30;4.10;;;;;;;3.03;71.23;98137.91;1764238;79;21935;-52
2021/12/02 09:06:51;;;;;;;3.60;3.27;;;;;;;3.06;71.23;98135.59;1781982;78;21681;-54
2021/12/02 09:09:17;;;;;;;6.63;3.37;;;;;;;3.09;71.27;98126.59;1756304;79;21733;-53
2021/12/02 09:11:43;;;;;;;6.20;4.70;;;;;;;3.14;71.28;98125.95;1780182;78;21506;-52
2021/12/02 09:14:09;;;;;;;6.70;4.23;;;;;;;3.18;71.32;98131.52;1747847;80;21905;-52
2021/12/02 09:16:37;;;;;;;5.50;3.17;;;;;;;3.23;71.29;98117.07;1780672;78;21514;-53
2021/12/02 09:19:03;;;;;;;4.37;3.17;;;;;;;3.29;71.28;98119.94;1757573;79;21257;-52
2021/12/02 09:21:30;;;;;;;9.40;4.30;;;;;;;3.34;71.26;98112.61;1776286;79;21383;-54
2021/12/02 09:23:56;;;;;;;9.07;6.83;;;;;;;3.35;71.23;98120.52;1772250;79;21809;-52
2021/12/02 09:26:22;;;;;;;10.33;6.47;;;;;;;3.37;71.23;98114.67;1785659;79;20890;-54
2021/12/02 09:28:56;;;;;;;7.37;3.93;;;;;;;3.40;71.20;98115.02;1802344;78;20971;-54
2021/12/02 09:31:23;;;;;;;6.55;4.62;;;;;;;3.42;71.18;98114.45;1785136;79;21278;-54
2021/12/02 09:33:49;;;;;;;6.53;4.20;;;;;;;3.42;71.16;98118.44;1786069;79;20954;-54
2021/12/02 09:36:16;;;;;;;5.40;3.90;;;;;;;3.42;71.18;98109.13;1801868;78;20911;-53
2021/12/02 09:38:44;;;;;;;7.87;3.20;;;;;;;3.43;71.21;98103.75;1786303;79;21530;-53
2021/12/02 09:41:10;;;;;;;4.07;2.87;;;;;;;3.45;71.22;98109.47;1776243;79;20945;-53
2021/12/02 09:43:37;;;;;;;4.63;3.73;;;;;;;3.45;71.27;98116.12;1784346;79;22030;-54
2021/12/02 09:46:03;;;;;;;4.63;3.20;;;;;;;3.44;71.28;98108.60;1784137;79;21025;-54
2021/12/02 09:48:30;;;;;;;3.93;2.90;;;;;;;3.47;71.30;98111.13;1782235;79;21088;-54
2021/12/02 09:51:11;;;;;;;6.00;3.93;;;;;;;3.48;71.32;98108.88;1797857;77;21693;-54
2021/12/02 09:53:52;;;;;;;6.80;3.57;;;;;;;3.49;71.37;98101.77;1795222;77;21349;-54
2021/12/02 09:56:14;;;;;;;4.70;3.97;;;;;;;3.51;71.38;98101.20;1794929;78;21130;-53
2021/12/02 09:58:35;;;;;;;6.47;4.67;;;;;;;3.54;71.38;98102.40;1799346;77;20932;-54
2021/12/02 10:01:11;;;;;;;5.90;3.20;;;;;;;3.56;71.38;98097.41;1797219;77;21081;-54
2021/12/02 10:03:44;;;;;;;3.90;3.03;;;;;;;3.59;71.41;98096.39;1785483;78;21029;-54
2021/12/02 10:06:19;;;;;;;7.47;4.50;;;;;;;3.61;71.41;98094.52;1783635;78;21080;-54
2021/12/02 10:14:27;;;;;;;5.67;4.60;;;;;;;3.65;71.45;98087.67;1798570;79;21027;-54
2021/12/02 10:17:18;;;;;;;4.23;2.93;;;;;;;3.66;71.43;98086.71;1800877;79;20934;-54
2021/12/02 10:20:35;;;;;;;3.63;2.53;;;;;;;3.70;71.44;98086.98;1764155;78;21452;-54
2021/12/02 10:23:26;;;;;;;7.20;2.80;;;;;;;3.71;71.38;98086.52;1781246;80;21100;-54
2021/12/02 10:25:59;;;;;;;6.20;4.07;;;;;;;3.74;71.42;98089.88;1778690;79;20902;-54
2021/12/02 10:28:28;;;;;;;6.72;2.45;;;;;;;3.77;71.37;98085.75;1794293;79;21371;-54
2021/12/02 10:31:00;;;;;;;6.27;3.10;;;;;;;3.79;71.33;98085.69;1795791;78;20949;-54
2021/12/02 10:33:46;;;;;;;9.27;3.50;;;;;;;3.80;71.31;98084.75;1798200;79;20938;-53
2021/12/02 10:36:40;;;;;;;7.40;4.43;;;;;;;3.82;71.29;98083.35;1784884;79;21434;-54
2021/12/02 10:39:20;;;;;;;8.70;3.80;;;;;;;3.84;71.29;98077.00;1781300;78;21045;-54
2021/12/02 10:41:49;;;;;;;13.23;7.37;;;;;;;3.88;71.35;98079.92;1792693;79;21101;-54
2021/12/02 10:44:21;;;;;;;16.40;11.83;;;;;;;3.92;71.32;98075.30;1796611;79;20885;-53
2021/12/02 10:47:03;;;;;;;21.97;15.27;;;;;;;3.96;71.34;98073.77;1796547;79;20886;-54
2021/12/02 10:49:44;;;;;;;17.67;11.67;;;;;;;4.01;71.28;98072.19;1797777;78;21119;-54
2021/12/02 10:52:18;;;;;;;18.03;12.00;;;;;;;4.04;71.23;98067.59;1790722;79;20867;-54
2021/12/02 10:54:47;;;;;;;19.90;13.05;;;;;;;4.08;71.18;98064.33;1791277;79;21808;-54
2021/12/02 10:57:23;;;;;;;14.97;10.97;;;;;;;4.12;71.08;98060.56;1812589;77;21013;-54
2021/12/02 10:59:51;;;;;;;11.07;8.63;;;;;;;4.15;71.10;98063.09;1783235;78;20907;-54
2021/12/02 11:02:31;;;;;;;9.07;6.57;;;;;;;4.20;71.05;98059.72;1785453;79;21462;-53
2021/12/02 11:05:09;;;;;;;8.27;6.10;;;;;;;4.24;71.00;98051.12;1780713;80;20966;-54
2021/12/02 11:07:42;;;;;;;12.33;7.23;;;;;;;4.29;70.91;98047.74;1813743;78;20891;-54
2021/12/02 11:10:14;;;;;;;6.40;4.97;;;;;;;4.32;70.85;98044.94;1799053;77;21618;-54
2021/12/02 11:12:48;;;;;;;6.20;5.50;;;;;;;4.35;70.79;98046.95;1801384;79;20915;-54
2021/12/02 11:15:24;;;;;;;7.40;4.17;;;;;;;4.40;70.73;98050.27;1785376;78;21819;-59
2021/12/02 11:17:57;;;;;;;8.73;5.70;;;;;;;4.43;70.70;98048.77;1770270;80;21379;-54
2021/12/02 11:20:40;;;;;;;3.80;3.47;;;;;;;4.46;70.63;98052.62;1759261;80;21326;-54
2021/12/02 11:23:14;;;;;;;4.60;3.50;;;;;;;4.48;70.45;98052.08;1774469;79;21321;-54
2021/12/02 11:25:58;;;;;;;4.33;3.43;;;;;;;4.51;70.36;98048.38;1767208;79;20961;-54
2021/12/02 11:28:28;;;;;;;6.47;3.20;;;;;;;4.56;70.23;98042.36;1765256;79;21200;-54
2021/12/02 11:30:57;;;;;;;6.97;3.97;;;;;;;4.61;70.19;98041.64;1746555;80;21391;-54
2021/12/02 11:33:33;;;;;;;6.13;3.40;;;;;;;4.64;70.04;98045.49;1760803;79;21461;-54
2021/12/02 11:35:59;;;;;;;3.27;2.93;;;;;;;4.66;69.94;98039.63;1760107;79;20957;-54
2021/12/02 11:38:27;;;;;;;3.90;3.50;;;;;;;4.70;69.77;98038.97;1755785;79;20906;-54
2021/12/02 11:40:57;;;;;;;4.13;3.00;;;;;;;4.71;69.70;98045.56;1760648;79;21832;-54
2021/12/02 11:43:28;;;;;;;5.83;3.70;;;;;;;4.72;69.68;98045.09;1759875;79;20954;-54
2021/12/02 11:45:56;;;;;;;5.27;3.53;;;;;;;4.73;69.58;98044.16;1760197;79;21509;-54
2021/12/02 11:48:25;;;;;;;5.40;3.30;;;;;;;4.72;69.49;98042.42;1762880;79;20913;-54
2021/12/02 11:50:54;;;;;;;5.20;3.00;;;;;;;4.73;69.51;98040.16;1760850;79;20941;-54
2021/12/02 11:53:23;;;;;;;5.20;4.07;;;;;;;4.74;69.44;98040.55;1764784;79;21108;-54
2021/12/02 11:55:53;;;;;;;6.97;2.97;;;;;;;4.76;69.39;98045.34;1770568;79;20933;-53
2021/12/02 11:58:19;;;;;;;4.53;2.93;;;;;;;4.75;69.34;98046.28;1770966;79;20910;-53
2021/12/02 12:00:46;;;;;;;4.10;3.03;;;;;;;4.74;69.32;98032.09;1768437;79;20985;-54
2021/12/02 12:03:15;;;;;;;3.93;2.30;;;;;;;4.73;69.25;98031.69;1768070;79;20929;-54
2021/12/02 12:05:58;;;;;;;5.83;2.60;;;;;;;4.73;69.32;98027.70;1776416;79;21431;-54
2021/12/02 12:08:30;;;;;;;3.73;2.87;;;;;;;4.74;69.33;98023.23;1768218;79;20906;-53
2021/12/02 12:10:57;;;;;;;10.27;4.80;;;;;;;4.72;69.38;98017.97;1767870;79;21696;-53